Time;durP1;ratioP1;P1;durP2;ratioP2;P2;SDS_P1;SDS_P2;PMS_P1;PMS_P2;Temp;Humidity;BMP_temperature;BMP_pressure;BME280_temperature;BME280_humidity;BME280_pressure;Samples;Min_cycle;Max_cycle;Signal;HPM_P1;HPM_P2
2021/05/09 00:01:22;;;;;;;3.03;1.67;;;;;;;12.26;70.55;99229.75;5035815;28;20469;-74
2021/05/09 00:03:47;;;;;;;3.17;1.80;;;;;;;12.23;70.70;99216.50;5021948;28;20040;-74
2021/05/09 00:06:14;;;;;;;3.97;1.95;;;;;;;12.21;71.27;99218.00;5009792;28;20039;-74
2021/05/09 00:08:39;;;;;;;3.25;1.92;;;;;;;12.17;70.87;99217.84;5041257;28;20020;-74
2021/05/09 00:11:05;;;;;;;4.38;1.73;;;;;;;12.17;71.04;99212.28;5022699;28;20654;-74
2021/05/09 00:13:30;;;;;;;3.80;1.90;;;;;;;12.11;71.10;99205.28;5037708;28;20029;-74
2021/05/09 00:15:58;;;;;;;4.30;1.90;;;;;;;12.07;71.03;99202.34;5035474;28;20039;-74
2021/05/09 00:18:23;;;;;;;3.65;1.70;;;;;;;12.04;70.94;99193.88;5048961;28;20056;-74
2021/05/09 00:20:49;;;;;;;3.47;1.77;;;;;;;12.00;70.98;99184.53;5007622;28;20033;-74
2021/05/09 00:23:14;;;;;;;5.75;2.00;;;;;;;11.96;71.35;99181.63;5024674;28;20030;-74
2021/05/09 00:25:40;;;;;;;3.70;1.92;;;;;;;11.93;71.43;99176.75;5021833;28;20410;-74
2021/05/09 00:28:05;;;;;;;3.35;1.85;;;;;;;11.91;71.29;99164.31;5047841;28;20429;-74
2021/05/09 00:30:31;;;;;;;3.13;1.80;;;;;;;11.90;71.25;99154.34;5067752;28;20026;-74
2021/05/09 00:32:56;;;;;;;3.17;1.73;;;;;;;11.88;71.38;99149.09;5050103;28;20036;-74
2021/05/09 00:35:22;;;;;;;3.35;1.73;;;;;;;11.84;71.48;99157.28;5025441;28;20036;-73
2021/05/09 00:37:47;;;;;;;2.85;1.60;;;;;;;11.83;71.62;99150.06;5052236;28;20055;-74
2021/05/09 00:40:13;;;;;;;3.95;1.73;;;;;;;11.77;71.84;99148.63;5016301;28;20029;-74
2021/05/09 00:42:38;;;;;;;2.33;1.70;;;;;;;11.78;71.82;99136.38;5032763;28;20033;-74
2021/05/09 00:45:07;;;;;;;2.45;1.83;;;;;;;11.75;71.75;99133.44;5023178;28;20040;-75
2021/05/09 00:47:33;;;;;;;2.42;1.50;;;;;;;11.73;71.91;99125.44;5052257;28;20087;-75
2021/05/09 00:49:58;;;;;;;3.25;1.95;;;;;;;11.74;71.61;99123.47;4990532;28;20025;-74
2021/05/09 00:52:25;;;;;;;2.53;1.77;;;;;;;11.68;72.00;99108.94;5038679;28;20028;-74
2021/05/09 00:54:58;;;;;;;3.92;1.48;;;;;;;11.67;72.47;99100.91;5021894;28;20024;-74
2021/05/09 00:57:24;;;;;;;1.83;1.60;;;;;;;11.67;72.37;99103.69;5003969;28;20083;-74
2021/05/09 00:59:53;;;;;;;2.88;1.90;;;;;;;11.65;72.24;99087.38;5037555;28;20037;-73
2021/05/09 01:02:19;;;;;;;2.70;1.88;;;;;;;11.64;72.49;99077.38;5025616;28;20024;-74
2021/05/09 01:04:45;;;;;;;4.18;1.92;;;;;;;11.63;72.56;99078.53;5003805;28;20040;-74
2021/05/09 01:07:13;;;;;;;2.85;1.83;;;;;;;11.62;72.71;99083.28;5020263;28;20124;-74
2021/05/09 01:09:39;;;;;;;3.72;2.10;;;;;;;11.60;72.17;99082.00;4989670;28;20083;-74
2021/05/09 01:12:05;;;;;;;2.95;1.95;;;;;;;11.60;72.76;99077.25;5040210;28;20025;-74
2021/05/09 01:14:31;;;;;;;2.65;1.70;;;;;;;11.58;72.62;99062.03;5017626;28;20105;-74
2021/05/09 01:16:56;;;;;;;2.60;1.67;;;;;;;11.58;72.44;99059.25;5005296;28;20474;-74
2021/05/09 01:19:22;;;;;;;3.63;1.90;;;;;;;11.58;72.32;99064.81;5041390;28;20032;-74
2021/05/09 01:21:47;;;;;;;3.20;1.80;;;;;;;11.57;72.30;99064.00;5027986;28;20032;-75
2021/05/09 01:24:13;;;;;;;2.63;1.98;;;;;;;11.53;72.40;99063.06;4989207;28;20432;-74
2021/05/09 01:26:39;;;;;;;3.70;1.70;;;;;;;11.53;73.02;99067.78;4987948;28;20026;-74
2021/05/09 01:29:04;;;;;;;3.40;2.17;;;;;;;11.50;72.93;99080.38;5027927;28;20025;-74
2021/05/09 01:31:30;;;;;;;2.97;1.58;;;;;;;11.49;72.58;99067.66;5025956;28;20033;-73
2021/05/09 01:33:55;;;;;;;4.28;2.10;;;;;;;11.50;73.60;99054.56;5022415;28;20021;-74
2021/05/09 01:36:21;;;;;;;2.30;1.60;;;;;;;11.49;73.59;99050.16;5007150;28;20033;-73
2021/05/09 01:38:46;;;;;;;2.30;1.80;;;;;;;11.50;73.50;99054.56;5038577;28;20485;-74
2021/05/09 01:41:12;;;;;;;3.95;1.75;;;;;;;11.51;73.42;99053.44;5018544;28;20037;-74
2021/05/09 01:43:37;;;;;;;3.45;1.80;;;;;;;11.48;73.39;99038.22;5041517;28;20056;-74
2021/05/09 01:46:03;;;;;;;3.22;1.88;;;;;;;11.53;73.65;99039.97;5007200;28;20481;-75
2021/05/09 01:48:29;;;;;;;3.38;2.00;;;;;;;11.51;73.04;99026.44;5007780;28;20060;-73
2021/05/09 01:50:55;;;;;;;3.05;1.85;;;;;;;11.53;73.20;99017.75;5048914;28;20513;-74
2021/05/09 01:53:20;;;;;;;2.58;1.52;;;;;;;11.51;74.28;98993.06;5020535;28;20029;-74
2021/05/09 01:55:46;;;;;;;4.35;1.90;;;;;;;11.50;73.63;99016.44;5051041;28;20375;-74
2021/05/09 01:58:11;;;;;;;2.67;2.03;;;;;;;11.52;74.16;99024.47;5038509;28;20082;-74
2021/05/09 02:00:37;;;;;;;2.47;1.88;;;;;;;11.50;73.74;99016.44;5037773;28;20036;-74
2021/05/09 02:03:03;;;;;;;3.03;1.92;;;;;;;11.51;73.65;99000.59;5021120;28;20425;-74
2021/05/09 02:05:28;;;;;;;4.75;1.85;;;;;;;11.51;74.70;99014.50;5050763;28;20045;-74
2021/05/09 02:07:54;;;;;;;2.65;1.80;;;;;;;11.53;73.62;99012.19;5048353;28;20543;-74
2021/05/09 02:10:19;;;;;;;2.20;1.80;;;;;;;11.51;74.14;99017.28;5035236;28;20029;-74
2021/05/09 02:12:45;;;;;;;2.65;1.73;;;;;;;11.52;74.49;99027.25;4992880;28;20029;-74
2021/05/09 02:15:11;;;;;;;2.22;1.70;;;;;;;11.52;74.02;99036.41;4991138;28;20468;-74
2021/05/09 02:17:36;;;;;;;3.75;1.80;;;;;;;11.54;74.09;99030.50;5052859;28;20077;-74
2021/05/09 02:20:06;;;;;;;2.85;1.70;;;;;;;11.52;74.04;99028.06;5004142;28;20091;-74
2021/05/09 02:22:31;;;;;;;3.10;1.80;;;;;;;11.51;74.21;99031.19;5022675;28;20037;-74
2021/05/09 02:24:57;;;;;;;3.70;1.60;;;;;;;11.53;73.70;99023.31;5018293;28;20044;-75
2021/05/09 02:27:22;;;;;;;2.38;1.80;;;;;;;11.49;73.84;99025.94;5003708;28;20022;-75
2021/05/09 02:29:48;;;;;;;2.22;1.70;;;;;;;11.51;73.23;99008.94;5045135;28;20033;-74
2021/05/09 02:32:13;;;;;;;2.75;1.63;;;;;;;11.48;73.81;99006.81;5031748;28;20029;-74
2021/05/09 02:34:39;;;;;;;3.20;1.60;;;;;;;11.47;73.41;99007.97;4993447;28;20074;-74
2021/05/09 02:37:04;;;;;;;3.53;1.80;;;;;;;11.44;73.16;99009.47;5047830;28;20050;-74
2021/05/09 02:39:30;;;;;;;2.70;1.70;;;;;;;11.43;73.58;98993.94;5020289;28;20032;-75
2021/05/09 02:41:56;;;;;;;3.47;2.25;;;;;;;11.42;74.14;98989.50;5001349;28;20079;-75
2021/05/09 02:44:21;;;;;;;2.53;1.75;;;;;;;11.41;73.78;98988.72;5050061;28;20477;-74
2021/05/09 02:46:47;;;;;;;1.80;1.60;;;;;;;11.38;74.16;98992.16;5035520;28;20029;-74
2021/05/09 02:49:13;;;;;;;2.78;1.52;;;;;;;11.38;73.85;98992.16;5001263;28;20052;-74
2021/05/09 02:51:38;;;;;;;2.28;1.65;;;;;;;11.32;73.98;98990.72;5046950;28;20029;-74
2021/05/09 02:54:04;;;;;;;2.60;1.60;;;;;;;11.36;74.09;98997.22;4988711;28;20021;-74
2021/05/09 02:56:29;;;;;;;3.03;1.83;;;;;;;11.36;74.35;98991.69;5047075;28;20056;-74
2021/05/09 02:58:55;;;;;;;2.03;1.60;;;;;;;11.29;73.89;98969.19;5043856;28;20036;-74
2021/05/09 03:01:21;;;;;;;2.63;1.73;;;;;;;11.30;74.48;98956.91;4994257;28;20481;-74
2021/05/09 03:03:47;;;;;;;3.97;1.98;;;;;;;11.33;74.48;98952.63;5014198;28;20052;-74
2021/05/09 03:06:12;;;;;;;2.67;2.03;;;;;;;11.28;74.28;98964.78;5020833;28;20028;-74
2021/05/09 03:08:38;;;;;;;2.33;1.70;;;;;;;11.31;74.44;98955.75;5021096;28;20036;-74
2021/05/09 03:11:03;;;;;;;2.22;1.83;;;;;;;11.29;74.42;98957.25;5030174;28;20033;-74
2021/05/09 03:13:30;;;;;;;4.43;1.83;;;;;;;11.28;74.93;98966.72;5014074;28;20040;-73
2021/05/09 03:15:57;;;;;;;4.03;1.77;;;;;;;11.27;74.91;98965.09;5037931;28;20088;-74
2021/05/09 03:18:22;;;;;;;2.50;1.60;;;;;;;11.28;74.92;98962.00;5020391;28;20040;-76
2021/05/09 03:20:48;;;;;;;2.88;1.60;;;;;;;11.28;75.35;98961.16;5025794;28;20580;-74
2021/05/09 03:23:13;;;;;;;2.60;1.50;;;;;;;11.29;75.31;98957.25;5053335;28;20036;-75
2021/05/09 03:25:39;;;;;;;2.42;1.58;;;;;;;11.30;75.94;98945.78;5051138;28;20029;-74
2021/05/09 03:28:04;;;;;;;2.33;1.63;;;;;;;11.31;76.24;98941.03;5051225;28;20083;-74
2021/05/09 03:30:30;;;;;;;2.85;1.90;;;;;;;11.32;75.96;98932.38;5009491;28;20057;-74
2021/05/09 03:32:56;;;;;;;1.92;1.67;;;;;;;11.33;75.91;98914.53;5016200;28;20048;-74
2021/05/09 03:35:22;;;;;;;2.80;1.75;;;;;;;11.34;76.18;98916.19;5021735;28;20032;-74
2021/05/09 03:37:47;;;;;;;4.53;2.00;;;;;;;11.38;76.27;98925.44;5035953;28;20049;-74
2021/05/09 03:40:13;;;;;;;2.83;1.60;;;;;;;11.39;75.56;98924.31;4990374;28;20033;-73
2021/05/09 03:42:38;;;;;;;4.68;1.73;;;;;;;11.39;75.61;98924.31;5036154;28;20078;-73
2021/05/09 03:45:05;;;;;;;2.45;1.70;;;;;;;11.40;76.76;98925.94;5040510;28;20033;-75
2021/05/09 03:47:30;;;;;;;2.72;1.65;;;;;;;11.43;76.00;98920.84;5021231;28;20029;-75
2021/05/09 03:49:56;;;;;;;1.92;1.63;;;;;;;11.46;76.10;98911.84;5013224;28;20037;-75
2021/05/09 03:52:22;;;;;;;2.38;1.42;;;;;;;11.46;76.15;98914.63;5040180;28;20040;-74
2021/05/09 03:54:47;;;;;;;2.97;1.67;;;;;;;11.48;76.22;98921.47;5037396;28;20377;-74
2021/05/09 03:57:13;;;;;;;4.03;1.90;;;;;;;11.50;76.28;98910.00;4993887;28;20483;-75
2021/05/09 03:59:39;;;;;;;2.30;1.77;;;;;;;11.51;76.41;98906.09;5071123;28;20037;-75
2021/05/09 04:02:05;;;;;;;3.30;1.73;;;;;;;11.52;77.50;98894.59;5056359;28;20021;-75
2021/05/09 04:04:30;;;;;;;3.08;2.03;;;;;;;11.55;76.26;98890.34;5058080;28;20037;-75
2021/05/09 04:06:56;;;;;;;2.85;1.60;;;;;;;11.54;75.10;98891.50;5057077;28;20041;-74
2021/05/09 04:09:21;;;;;;;2.53;1.50;;;;;;;11.57;76.83;98885.25;5022774;28;20470;-74
2021/05/09 04:11:47;;;;;;;2.05;1.60;;;;;;;11.60;77.52;98890.94;5064390;28;20065;-75
2021/05/09 04:14:12;;;;;;;5.85;1.83;;;;;;;11.60;76.76;98890.13;5039743;28;20035;-74
2021/05/09 04:16:38;;;;;;;3.42;1.92;;;;;;;11.64;77.79;98896.63;5026564;28;20037;-75
2021/05/09 04:19:03;;;;;;;2.17;1.65;;;;;;;11.65;76.95;98897.47;5023546;28;20037;-74
2021/05/09 04:21:29;;;;;;;2.30;1.58;;;;;;;11.66;76.91;98902.66;5014462;28;20029;-74
2021/05/09 04:23:54;;;;;;;2.65;1.77;;;;;;;11.68;76.18;98897.59;4991813;28;20032;-75
2021/05/09 04:26:20;;;;;;;2.10;1.88;;;;;;;11.70;76.68;98894.44;5038236;28;20519;-74
2021/05/09 04:28:45;;;;;;;1.75;1.63;;;;;;;11.70;76.66;98889.72;5038152;28;20548;-75
2021/05/09 04:31:13;;;;;;;2.05;1.40;;;;;;;11.73;76.34;98890.97;5040149;28;20382;-74
2021/05/09 04:33:39;;;;;;;3.10;1.60;;;;;;;11.74;76.89;98882.31;5036722;28;20025;-75
2021/05/09 04:36:05;;;;;;;3.33;1.52;;;;;;;11.74;77.11;98873.97;5041449;28;20034;-75
2021/05/09 04:38:30;;;;;;;3.10;1.63;;;;;;;11.75;77.37;98864.47;5022201;28;20489;-74
2021/05/09 04:40:56;;;;;;;2.05;1.60;;;;;;;11.77;76.54;98862.16;5064275;28;20032;-74
2021/05/09 04:43:22;;;;;;;2.35;1.48;;;;;;;11.78;76.89;98857.41;5039244;28;20029;-74
2021/05/09 04:45:49;;;;;;;1.90;1.50;;;;;;;11.77;76.27;98862.16;5050605;28;20073;-74
2021/05/09 04:48:15;;;;;;;1.60;1.48;;;;;;;11.81;76.08;98862.28;5067113;28;20074;-74
2021/05/09 04:50:40;;;;;;;4.68;1.83;;;;;;;11.79;76.38;98859.03;5027450;28;20041;-75
2021/05/09 04:53:26;;;;;;;2.47;1.80;;;;;;;11.84;76.24;98867.19;5065907;28;20041;-74
2021/05/09 04:55:52;;;;;;;2.70;1.80;;;;;;;11.80;77.00;98857.88;5045563;28;20040;-74
2021/05/09 04:58:18;;;;;;;2.42;1.90;;;;;;;11.83;75.86;98862.75;5007085;28;20063;-74
2021/05/09 05:00:43;;;;;;;2.72;1.65;;;;;;;11.81;76.29;98852.00;5049496;28;20040;-74
2021/05/09 05:03:09;;;;;;;1.98;1.75;;;;;;;11.84;75.98;98848.53;5062727;28;20546;-74
2021/05/09 05:05:34;;;;;;;3.17;1.70;;;;;;;11.83;76.74;98858.00;5024962;28;20041;-74
2021/05/09 05:08:00;;;;;;;2.10;1.83;;;;;;;11.84;76.89;98856.06;5038246;28;20025;-74
2021/05/09 05:10:25;;;;;;;2.00;1.67;;;;;;;11.82;76.54;98850.03;5032408;28;20033;-74
2021/05/09 05:12:51;;;;;;;1.83;1.60;;;;;;;11.82;75.43;98855.59;5055930;28;20054;-74
2021/05/09 05:15:17;;;;;;;1.58;1.48;;;;;;;11.79;75.38;98853.50;5050420;28;20029;-74
2021/05/09 05:17:42;;;;;;;3.47;1.80;;;;;;;11.77;74.93;98851.03;5046175;28;20424;-75
2021/05/09 05:20:08;;;;;;;1.83;1.48;;;;;;;11.76;75.07;98854.97;5025076;28;20389;-74
2021/05/09 05:22:34;;;;;;;2.33;1.77;;;;;;;11.78;75.93;98862.97;4989036;28;20032;-74
2021/05/09 05:24:59;;;;;;;2.78;2.03;;;;;;;11.76;75.85;98868.88;5020698;28;20478;-74
2021/05/09 05:27:25;;;;;;;2.70;1.70;;;;;;;11.76;75.48;98862.53;5047185;28;20041;-74
2021/05/09 05:29:50;;;;;;;2.38;1.83;;;;;;;11.75;75.78;98864.47;5047359;28;20032;-74
2021/05/09 05:32:16;;;;;;;2.47;1.35;;;;;;;11.72;75.67;98870.72;5070362;28;20036;-75
2021/05/09 05:34:41;;;;;;;2.70;1.50;;;;;;;11.72;76.16;98870.72;5059493;28;20024;-74
2021/05/09 05:37:07;;;;;;;2.60;1.60;;;;;;;11.73;75.36;98882.63;4976875;28;20049;-75
2021/05/09 05:39:32;;;;;;;2.95;1.38;;;;;;;11.72;75.99;98875.47;5029324;28;20025;-74
2021/05/09 05:42:00;;;;;;;3.65;1.52;;;;;;;11.73;75.88;98872.34;5019912;28;20030;-74
2021/05/09 05:44:25;;;;;;;3.80;1.30;;;;;;;11.72;75.15;98876.28;5036863;28;20029;-74
2021/05/09 05:46:51;;;;;;;2.88;1.50;;;;;;;11.71;74.94;98885.78;5025147;28;20033;-74
2021/05/09 05:49:17;;;;;;;2.72;1.52;;;;;;;11.73;74.98;98889.03;5034666;28;20032;-74
2021/05/09 05:51:42;;;;;;;2.00;1.35;;;;;;;11.78;75.07;98885.22;5036553;28;20033;-74
2021/05/09 05:54:08;;;;;;;2.38;1.60;;;;;;;11.81;74.34;98885.38;5020470;28;20492;-74
2021/05/09 05:56:33;;;;;;;3.67;1.60;;;;;;;11.81;75.37;98884.53;5052209;28;20615;-74
2021/05/09 05:58:59;;;;;;;2.83;1.60;;;;;;;11.85;75.62;98877.16;5005977;28;20039;-75
2021/05/09 06:01:24;;;;;;;3.60;1.63;;;;;;;11.89;75.59;98880.06;5066138;28;20033;-74
2021/05/09 06:03:50;;;;;;;2.95;1.52;;;;;;;11.94;75.18;98888.22;5052807;28;20090;-74
2021/05/09 06:06:15;;;;;;;2.80;1.55;;;;;;;11.99;75.91;98876.88;5021236;28;20053;-75
2021/05/09 06:08:42;;;;;;;2.60;1.50;;;;;;;12.04;74.90;98871.91;4994914;28;20082;-75
2021/05/09 06:11:07;;;;;;;5.20;1.77;;;;;;;12.14;77.20;98873.41;5020842;28;20095;-74
2021/05/09 06:13:33;;;;;;;2.63;1.60;;;;;;;12.24;75.74;98869.41;5036361;28;20017;-75
2021/05/09 06:15:59;;;;;;;4.18;1.40;;;;;;;12.40;74.56;98866.75;5021111;28;20112;-75
2021/05/09 06:18:24;;;;;;;2.30;1.55;;;;;;;12.52;74.32;98867.56;4990315;28;20482;-75
2021/05/09 06:20:50;;;;;;;2.00;1.42;;;;;;;12.68;73.79;98858.53;5000673;28;20033;-74
2021/05/09 06:23:24;;;;;;;2.25;1.60;;;;;;;12.87;73.52;98853.19;5011641;28;20406;-74
2021/05/09 06:25:50;;;;;;;2.70;1.42;;;;;;;13.07;73.34;98861.75;4988145;28;20025;-72
2021/05/09 06:28:15;;;;;;;1.77;1.50;;;;;;;13.27;72.47;98868.38;5049013;28;20111;-75
2021/05/09 06:30:43;;;;;;;2.05;1.30;;;;;;;13.46;72.16;98859.38;5051481;28;20029;-75
2021/05/09 06:33:09;;;;;;;2.05;1.40;;;;;;;13.67;71.75;98862.78;4992289;28;20025;-75
2021/05/09 06:35:38;;;;;;;4.05;1.50;;;;;;;13.88;71.44;98859.78;5022531;28;20020;-75
2021/05/09 06:38:05;;;;;;;2.35;1.40;;;;;;;14.11;71.15;98867.56;5047894;28;20099;-75
2021/05/09 06:40:30;;;;;;;1.58;1.25;;;;;;;14.31;71.32;98880.47;5032916;28;20034;-75
2021/05/09 06:42:57;;;;;;;1.85;1.48;;;;;;;14.50;70.92;98886.16;5045188;28;20033;-75
2021/05/09 06:45:23;;;;;;;1.70;1.30;;;;;;;14.67;70.90;98882.22;5026677;28;20037;-75
2021/05/09 06:47:50;;;;;;;2.78;1.48;;;;;;;14.84;70.60;98874.66;5037119;28;20027;-75
2021/05/09 06:50:15;;;;;;;3.13;1.40;;;;;;;14.98;70.58;98861.00;5065060;28;20397;-75
2021/05/09 06:52:44;;;;;;;2.40;1.17;;;;;;;15.14;70.25;98863.78;5038548;28;20033;-75
2021/05/09 06:55:11;;;;;;;4.18;1.55;;;;;;;15.25;69.57;98855.63;5068198;28;20441;-75
2021/05/09 06:57:37;;;;;;;3.47;1.30;;;;;;;15.41;69.97;98865.59;5038102;28;20029;-75
2021/05/09 07:00:04;;;;;;;3.30;1.63;;;;;;;15.54;69.86;98873.84;5055147;28;20059;-75
2021/05/09 07:02:30;;;;;;;4.03;1.55;;;;;;;15.65;69.61;98863.69;5055424;28;20111;-75
2021/05/09 07:04:55;;;;;;;3.10;1.50;;;;;;;15.77;69.82;98844.00;5052121;28;20029;-78
2021/05/09 07:07:21;;;;;;;4.10;1.80;;;;;;;15.88;69.49;98849.81;5052569;28;20029;-75
2021/05/09 07:09:46;;;;;;;2.70;1.63;;;;;;;16.01;68.99;98858.84;5040965;28;20032;-75
2021/05/09 07:12:12;;;;;;;3.70;1.67;;;;;;;16.11;68.94;98852.63;5056262;28;20032;-75
2021/05/09 07:14:37;;;;;;;4.57;1.70;;;;;;;16.22;68.98;98859.25;5056095;28;20104;-75
2021/05/09 07:17:02;;;;;;;5.32;2.00;;;;;;;16.32;69.24;98855.00;5022950;28;20545;-75
2021/05/09 07:19:28;;;;;;;3.95;1.52;;;;;;;16.42;69.09;98860.00;5074482;28;20039;-75
2021/05/09 07:21:57;;;;;;;3.30;1.83;;;;;;;16.50;68.78;98863.75;5036080;28;20690;-75
2021/05/09 07:24:23;;;;;;;5.30;2.00;;;;;;;16.60;68.57;98862.28;5048011;28;20030;-75
2021/05/09 07:26:48;;;;;;;2.53;1.38;;;;;;;16.65;68.47;98871.19;5035378;28;20032;-75
2021/05/09 07:29:14;;;;;;;3.70;1.70;;;;;;;16.72;68.88;98876.94;5054086;28;20041;-75
2021/05/09 07:31:42;;;;;;;4.95;1.88;;;;;;;16.76;68.44;98874.19;5037621;28;20077;-74
2021/05/09 07:34:09;;;;;;;3.45;1.77;;;;;;;16.78;68.58;98869.03;5069373;28;20592;-75
2021/05/09 07:36:36;;;;;;;2.35;1.42;;;;;;;16.80;68.52;98860.25;5033698;28;20531;-71
2021/05/09 07:39:02;;;;;;;3.00;1.60;;;;;;;16.84;68.85;98863.94;5009189;28;20033;-73
2021/05/09 07:41:27;;;;;;;3.25;1.33;;;;;;;16.88;68.21;98861.97;5054468;28;20035;-72
2021/05/09 07:43:53;;;;;;;2.75;1.40;;;;;;;16.93;67.95;98870.88;5040893;28;20029;-73
2021/05/09 07:46:18;;;;;;;3.50;1.83;;;;;;;16.99;68.16;98857.34;4991369;28;20026;-72
2021/05/09 07:48:44;;;;;;;3.92;1.30;;;;;;;17.03;67.29;98858.22;5067196;28;20044;-73
2021/05/09 07:51:09;;;;;;;4.72;1.38;;;;;;;17.09;68.52;98858.69;5045648;28;20462;-73
2021/05/09 07:53:35;;;;;;;4.85;1.40;;;;;;;17.13;68.10;98856.75;5007547;28;20413;-73
2021/05/09 07:56:00;;;;;;;4.93;1.58;;;;;;;17.16;68.34;98868.03;4993900;28;20087;-73
2021/05/09 07:58:26;;;;;;;2.97;1.55;;;;;;;17.23;67.62;98877.75;5007262;28;20699;-73
2021/05/09 08:00:51;;;;;;;3.15;1.17;;;;;;;17.27;68.97;98873.78;4981959;28;21581;-73
2021/05/09 08:03:17;;;;;;;3.78;1.40;;;;;;;17.30;68.42;98869.41;5042852;28;20496;-73
2021/05/09 08:05:44;;;;;;;2.47;1.25;;;;;;;17.35;68.17;98869.09;5039787;28;20028;-73
2021/05/09 08:08:10;;;;;;;6.05;1.63;;;;;;;17.38;68.58;98840.25;5013513;28;20029;-73
2021/05/09 08:10:38;;;;;;;3.88;1.58;;;;;;;17.40;69.32;98838.69;5021148;28;20021;-73
2021/05/09 08:13:04;;;;;;;4.93;1.42;;;;;;;17.44;69.50;98850.00;5019026;28;20025;-73
2021/05/09 08:15:30;;;;;;;5.35;1.50;;;;;;;17.47;69.65;98849.22;5016511;28;20029;-73
2021/05/09 08:17:55;;;;;;;5.20;1.65;;;;;;;17.48;69.31;98834.00;5023903;28;20051;-73
2021/05/09 08:20:21;;;;;;;4.90;1.67;;;;;;;17.51;69.42;98832.44;5007984;28;20040;-73
2021/05/09 08:22:47;;;;;;;5.28;1.42;;;;;;;17.53;69.28;98825.25;5033509;28;20041;-73
2021/05/09 08:25:13;;;;;;;4.78;1.60;;;;;;;17.53;69.18;98828.06;5021383;28;20032;-73
2021/05/09 08:27:39;;;;;;;5.65;1.50;;;;;;;17.56;69.00;98835.72;5020374;28;20028;-73
2021/05/09 08:30:05;;;;;;;3.92;1.42;;;;;;;17.57;69.40;98848.53;5040148;28;20087;-73
2021/05/09 08:32:31;;;;;;;4.10;1.55;;;;;;;17.58;69.66;98872.63;5039033;28;20512;-73
2021/05/09 08:34:58;;;;;;;5.45;1.60;;;;;;;17.56;69.45;98866.59;5017123;28;20118;-74
2021/05/09 08:37:23;;;;;;;5.65;1.55;;;;;;;17.58;69.72;98860.59;5037141;28;20049;-74
2021/05/09 08:39:49;;;;;;;4.85;1.60;;;;;;;17.56;70.06;98844.13;5035926;28;20037;-73
2021/05/09 08:42:15;;;;;;;2.75;1.70;;;;;;;17.57;69.76;98845.72;4989438;28;20382;-73
2021/05/09 08:44:44;;;;;;;7.22;1.70;;;;;;;17.56;70.31;98837.72;5023685;28;20032;-73
2021/05/09 08:47:10;;;;;;;4.00;1.52;;;;;;;17.55;70.27;98848.13;5038177;28;20032;-73
2021/05/09 08:49:38;;;;;;;3.42;1.80;;;;;;;17.54;69.61;98851.31;5011536;28;20056;-73
2021/05/09 08:52:04;;;;;;;5.50;1.65;;;;;;;17.53;69.68;98847.69;5022410;28;20056;-73
2021/05/09 08:54:29;;;;;;;5.72;1.70;;;;;;;17.52;70.43;98850.88;5023950;28;20064;-74
2021/05/09 08:56:55;;;;;;;6.78;1.70;;;;;;;17.52;70.26;98850.88;4990842;28;20029;-74
2021/05/09 08:59:20;;;;;;;5.30;1.60;;;;;;;17.52;70.50;98850.88;5010375;28;20033;-76
2021/05/09 09:01:46;;;;;;;4.72;1.88;;;;;;;17.50;70.67;98854.06;5045326;28;20033;-76
2021/05/09 09:04:13;;;;;;;4.13;1.45;;;;;;;17.52;70.57;98846.06;5025372;28;20041;-74
2021/05/09 09:06:46;;;;;;;3.97;1.63;;;;;;;17.53;70.74;98839.28;5021121;28;20029;-73
2021/05/09 09:09:23;;;;;;;5.03;1.92;;;;;;;17.55;70.76;98834.09;5033920;28;20083;-73
2021/05/09 09:12:00;;;;;;;7.38;1.75;;;;;;;17.56;70.60;98834.91;5007244;28;20040;-73
2021/05/09 09:14:26;;;;;;;5.15;1.80;;;;;;;17.59;71.04;98822.91;5021489;28;20098;-74
2021/05/09 09:17:09;;;;;;;2.33;1.30;;;;;;;17.65;71.41;98824.19;5008723;28;20428;-73
2021/05/09 09:19:35;;;;;;;7.57;1.73;;;;;;;17.72;70.41;98826.25;5027362;28;20021;-74
2021/05/09 09:22:00;;;;;;;6.03;1.90;;;;;;;17.78;70.22;98821.94;5016008;28;20031;-76
2021/05/09 09:24:26;;;;;;;5.40;1.65;;;;;;;17.86;70.22;98837.72;5006823;28;20025;-76
2021/05/09 09:26:52;;;;;;;5.45;1.58;;;;;;;17.94;69.25;98839.41;5020438;28;20492;-78
2021/05/09 09:29:33;;;;;;;5.80;1.70;;;;;;;17.95;67.26;98846.63;5052409;28;20106;-82
2021/05/09 09:32:03;;;;;;;6.15;2.05;;;;;;;17.94;67.41;98849.81;5041423;28;20109;-78
2021/05/09 09:34:39;;;;;;;6.03;1.60;;;;;;;17.96;67.00;98858.66;5024503;28;20036;-78
2021/05/09 09:37:05;;;;;;;5.05;2.08;;;;;;;17.93;67.20;98865.06;5053678;28;20101;-79
2021/05/09 09:39:44;;;;;;;6.05;2.15;;;;;;;17.89;67.83;98844.56;5053349;28;20109;-78
2021/05/09 09:42:09;;;;;;;3.85;1.95;;;;;;;17.85;68.52;98836.88;5025728;28;20063;-79
2021/05/09 09:44:35;;;;;;;7.88;2.30;;;;;;;17.80;68.51;98834.44;5032762;28;20033;-80
2021/05/09 09:47:01;;;;;;;5.65;2.20;;;;;;;17.81;68.83;98832.44;5015921;28;20381;-79
2021/05/09 09:49:30;;;;;;;5.50;1.88;;;;;;;17.79;69.05;98830.00;5006850;28;20544;-78
2021/05/09 09:52:06;;;;;;;5.90;1.70;;;;;;;17.79;68.94;98834.81;5068532;28;20025;-79
2021/05/09 09:54:33;;;;;;;5.78;2.10;;;;;;;17.81;68.88;98838.03;5037951;28;20033;-79
2021/05/09 09:57:00;;;;;;;4.07;1.52;;;;;;;17.87;68.65;98833.69;5008216;28;20055;-79
2021/05/09 09:59:26;;;;;;;4.38;2.13;;;;;;;17.85;69.19;98833.25;5019766;28;20044;-78
2021/05/09 10:01:51;;;;;;;9.00;2.33;;;;;;;17.83;68.99;98825.25;5005967;28;20651;-78
2021/05/09 10:04:17;;;;;;;8.73;2.42;;;;;;;17.85;69.02;98836.06;5024593;28;20044;-73
2021/05/09 10:06:42;;;;;;;4.93;1.88;;;;;;;17.89;68.93;98838.94;5051627;28;20032;-72
2021/05/09 10:09:08;;;;;;;4.88;1.80;;;;;;;17.90;68.74;98843.34;5039161;28;20028;-72
2021/05/09 10:11:34;;;;;;;4.68;1.77;;;;;;;17.91;68.70;98840.16;5050991;28;20081;-73
2021/05/09 10:14:00;;;;;;;5.40;1.70;;;;;;;17.85;69.04;98822.84;5022516;28;20079;-73
2021/05/09 10:16:30;;;;;;;7.20;2.03;;;;;;;17.82;69.10;98823.59;5006176;28;20025;-72
2021/05/09 10:18:59;;;;;;;6.32;2.00;;;;;;;17.84;68.87;98821.22;5063373;28;20063;-72
2021/05/09 10:21:32;;;;;;;5.65;1.98;;;;;;;17.84;69.06;98817.63;4995369;28;20034;-73
2021/05/09 10:24:11;;;;;;;4.13;1.88;;;;;;;17.86;68.91;98821.66;5050657;28;20036;-75
2021/05/09 10:27:02;;;;;;;6.32;2.00;;;;;;;17.85;69.48;98819.22;5051459;28;20082;-74
2021/05/09 10:29:45;;;;;;;7.80;2.30;;;;;;;17.85;69.12;98813.59;5037292;28;20040;-75
2021/05/09 10:32:19;;;;;;;5.88;1.92;;;;;;;17.85;69.52;98808.78;5053977;28;20029;-80
2021/05/09 10:34:54;;;;;;;6.45;2.15;;;;;;;17.90;69.46;98810.47;5055312;28;20033;-80
2021/05/09 10:37:42;;;;;;;5.00;1.88;;;;;;;18.00;69.47;98814.59;5068455;28;20041;-77
2021/05/09 10:40:23;;;;;;;4.72;2.05;;;;;;;18.11;69.09;98801.47;5052298;28;20068;-73
2021/05/09 10:43:27;;;;;;;3.75;1.65;;;;;;;18.25;68.78;98800.78;5036406;28;20029;-73
2021/05/09 10:45:53;;;;;;;3.75;1.85;;;;;;;18.37;68.56;98803.31;5021686;28;20045;-77
2021/05/09 10:48:22;;;;;;;5.20;1.70;;;;;;;18.51;68.18;98792.19;5004042;28;20074;-73
2021/05/09 10:51:03;;;;;;;5.25;1.95;;;;;;;18.66;67.96;98789.47;5054073;28;20041;-73
2021/05/09 10:53:35;;;;;;;6.45;1.75;;;;;;;18.78;67.79;98777.97;5056612;28;20036;-73
2021/05/09 10:56:02;;;;;;;4.03;1.90;;;;;;;18.96;67.41;98783.69;5056269;28;20544;-74
2021/05/09 10:58:39;;;;;;;4.00;1.70;;;;;;;19.16;66.58;98772.94;5037841;28;20040;-73
2021/05/09 11:01:07;;;;;;;5.38;1.90;;;;;;;19.32;65.92;98776.25;5064742;28;20044;-76
2021/05/09 11:03:36;;;;;;;7.47;1.73;;;;;;;19.52;64.46;98773.91;5050313;28;20036;-75
2021/05/09 11:06:18;;;;;;;6.10;2.00;;;;;;;19.70;64.35;98776.84;5057514;28;20032;-75
2021/05/09 11:08:53;;;;;;;4.50;1.73;;;;;;;19.90;64.40;98771.66;5051495;28;20041;-75
2021/05/09 11:11:22;;;;;;;6.60;1.88;;;;;;;20.02;63.78;98764.81;5052962;28;20037;-75
2021/05/09 11:13:57;;;;;;;5.93;1.60;;;;;;;20.15;63.53;98760.44;5068658;28;20032;-74
2021/05/09 11:16:23;;;;;;;9.70;1.77;;;;;;;20.21;63.27;98758.81;5042461;28;20037;-74
2021/05/09 11:19:01;;;;;;;4.72;1.60;;;;;;;20.40;62.19;98759.63;5047144;28;20048;-75
2021/05/09 11:21:31;;;;;;;8.07;1.50;;;;;;;20.52;62.39;98757.19;5032048;28;20021;-74
2021/05/09 11:24:11;;;;;;;3.33;1.40;;;;;;;20.71;62.32;98752.38;5036213;28;20495;-75
2021/05/09 11:26:43;;;;;;;5.03;1.00;;;;;;;20.88;61.85;98759.22;5025721;28;20088;-78
2021/05/09 11:29:13;;;;;;;7.07;1.80;;;;;;;21.02;61.38;98759.19;4990922;28;20100;-77
2021/05/09 11:31:48;;;;;;;11.10;2.90;;;;;;;21.12;61.18;98754.72;5050531;28;20052;-76
2021/05/09 11:34:14;;;;;;;4.93;1.30;;;;;;;21.35;60.75;98749.38;5007320;28;20060;-77